Time;durP1;ratioP1;P1;durP2;ratioP2;P2;SDS_P1;SDS_P2;PMS_P1;PMS_P2;Temp;Humidity;BMP_temperature;BMP_pressure;BME280_temperature;BME280_humidity;BME280_pressure;Samples;Min_cycle;Max_cycle;Signal;HPM_P1;HPM_P2
2021/08/05 00:00:44;;;;;;;;;;;;;;;12.53;100.00;94252.97;5073235;28;20017;-54
2021/08/05 00:03:09;;;;;;;3.85;2.40;;;;;;;12.52;100.00;94262.91;5072535;28;20282;-50
2021/08/05 00:05:40;;;;;;;6.13;2.42;;;;;;;12.52;100.00;94246.81;5072603;28;20028;-57
2021/08/05 00:08:05;;;;;;;3.50;2.95;;;;;;;12.54;100.00;94247.28;5072499;28;20387;-54
2021/08/05 00:10:31;;;;;;;5.90;3.03;;;;;;;12.56;100.00;94242.41;5072519;28;20029;-52
2021/08/05 00:12:56;;;;;;;4.45;3.05;;;;;;;12.57;100.00;94238.63;5072489;28;20036;-54
2021/08/05 00:15:22;;;;;;;6.10;3.78;;;;;;;12.59;100.00;94244.53;5072357;28;20028;-53
2021/08/05 00:18:06;;;;;;;6.03;3.75;;;;;;;12.62;100.00;94235.88;5072116;28;20389;-60
2021/08/05 00:20:32;;;;;;;4.50;3.50;;;;;;;12.62;100.00;94238.56;5072280;28;20020;-52
2021/08/05 00:23:11;;;;;;;6.53;4.47;;;;;;;12.62;100.00;94235.06;5054409;28;20027;-60
2021/08/05 00:25:37;;;;;;;5.68;4.45;;;;;;;12.64;100.00;94227.50;5055687;28;20077;-54
2021/08/05 00:28:05;;;;;;;8.98;5.05;;;;;;;12.65;100.00;94229.09;5072065;28;20036;-61
2021/08/05 00:30:31;;;;;;;7.93;4.45;;;;;;;12.66;100.00;94231.47;5072261;28;20090;-60
2021/08/05 00:33:01;;;;;;;7.05;4.97;;;;;;;12.67;100.00;94216.16;5072112;28;20433;-59
2021/08/05 00:35:27;;;;;;;7.25;5.35;;;;;;;12.66;100.00;94217.25;5045147;28;20037;-60
2021/08/05 00:37:52;;;;;;;9.77;6.80;;;;;;;12.65;100.00;94219.13;5067569;28;20387;-54
2021/08/05 00:40:21;;;;;;;9.43;6.47;;;;;;;12.65;100.00;94213.78;5072516;28;20103;-55
2021/08/05 00:42:49;;;;;;;7.47;6.22;;;;;;;12.63;100.00;94209.78;5072024;28;20109;-57
2021/08/05 00:45:18;;;;;;;10.30;7.43;;;;;;;12.62;100.00;94216.25;5072154;28;20028;-61
2021/08/05 00:47:43;;;;;;;9.05;6.82;;;;;;;12.60;100.00;94213.09;5071916;28;20031;-60
2021/08/05 00:50:10;;;;;;;8.38;6.75;;;;;;;12.61;100.00;94206.63;5054500;28;20024;-59
2021/08/05 00:52:37;;;;;;;10.05;5.93;;;;;;;12.60;100.00;94203.13;5071957;28;20024;-61
2021/08/05 00:55:03;;;;;;;8.70;6.82;;;;;;;12.62;100.00;94197.47;5054217;28;20021;-56
2021/08/05 00:57:31;;;;;;;8.80;6.28;;;;;;;12.66;100.00;94196.56;5041761;28;20086;-59
2021/08/05 01:00:00;;;;;;;25.85;7.35;;;;;;;12.67;100.00;94192.78;5058782;28;20025;-52
2021/08/05 01:02:36;;;;;;;11.02;6.75;;;;;;;12.68;100.00;94172.06;5076069;28;20025;-51
2021/08/05 01:05:05;;;;;;;8.85;6.25;;;;;;;12.67;100.00;94173.97;5075988;28;20021;-59
2021/08/05 01:07:40;;;;;;;8.70;6.40;;;;;;;12.65;100.00;94176.16;5041768;28;20027;-54
2021/08/05 01:10:48;;;;;;;12.48;6.63;;;;;;;12.62;100.00;94170.59;5075868;28;20036;-61
2021/08/05 01:13:24;;;;;;;10.80;6.70;;;;;;;12.60;100.00;94170.09;4974822;28;20026;-57
2021/08/05 01:15:57;;;;;;;10.38;6.45;;;;;;;12.54;100.00;94164.03;5049211;28;20039;-58
2021/08/05 01:18:33;;;;;;;13.27;7.45;;;;;;;12.50;100.00;94165.72;5075557;28;20048;-57
2021/08/05 01:21:14;;;;;;;10.00;6.60;;;;;;;12.45;100.00;94165.81;5075734;28;20024;-61
2021/08/05 01:23:46;;;;;;;9.98;6.75;;;;;;;12.42;100.00;94164.53;5057697;28;20035;-60
2021/08/05 01:26:30;;;;;;;10.98;6.60;;;;;;;12.37;100.00;94158.44;5075600;28;20025;-59
2021/08/05 01:28:56;;;;;;;9.80;6.82;;;;;;;12.33;100.00;94160.16;5057681;28;20394;-59
2021/08/05 01:31:24;;;;;;;9.30;7.00;;;;;;;12.31;100.00;94162.34;5075447;28;20387;-59
2021/08/05 01:33:52;;;;;;;10.20;7.28;;;;;;;12.30;100.00;94163.44;5057668;28;20016;-59
2021/08/05 01:36:19;;;;;;;10.80;7.32;;;;;;;12.32;100.00;94153.97;5061669;28;20083;-61
2021/08/05 01:38:47;;;;;;;8.73;7.18;;;;;;;12.33;100.00;94150.19;5075379;28;20498;-58
2021/08/05 01:41:16;;;;;;;10.98;7.70;;;;;;;12.33;100.00;94149.41;5057381;28;20127;-59
2021/08/05 01:43:46;;;;;;;10.05;7.72;;;;;;;12.31;100.00;94154.28;5075229;28;20024;-59
2021/08/05 01:46:11;;;;;;;10.65;7.90;;;;;;;12.32;100.00;94153.19;5075265;28;20077;-60
2021/08/05 01:48:38;;;;;;;10.25;7.45;;;;;;;12.35;100.00;94152.59;5075135;28;20025;-59
2021/08/05 01:51:06;;;;;;;13.35;7.97;;;;;;;12.38;100.00;94155.47;5075029;28;20039;-60
2021/08/05 01:53:33;;;;;;;14.27;7.78;;;;;;;12.45;100.00;94152.38;5075012;28;20540;-59
2021/08/05 01:56:01;;;;;;;11.20;8.05;;;;;;;12.46;100.00;94144.03;5075130;28;20391;-54
2021/08/05 01:58:31;;;;;;;13.95;8.00;;;;;;;12.49;100.00;94134.59;5075193;28;20559;-59
2021/08/05 02:01:06;;;;;;;9.98;7.93;;;;;;;12.50;100.00;94130.00;5074822;28;20060;-54
2021/08/05 02:03:33;;;;;;;12.07;8.10;;;;;;;12.51;100.00;94129.72;5074924;28;20116;-54
2021/08/05 02:06:05;;;;;;;13.20;8.80;;;;;;;12.53;100.00;94126.72;5074054;28;20035;-54
2021/08/05 02:09:00;;;;;;;13.63;9.30;;;;;;;12.53;100.00;94122.16;5074708;28;20365;-60
2021/08/05 02:11:32;;;;;;;9.73;8.10;;;;;;;12.53;100.00;94115.97;5075112;28;20020;-61
2021/08/05 02:14:00;;;;;;;11.80;7.88;;;;;;;12.55;100.00;94119.94;5074641;28;20031;-53
2021/08/05 02:16:28;;;;;;;11.68;8.48;;;;;;;12.55;100.00;94109.19;5074360;28;20024;-54
2021/08/05 02:19:15;;;;;;;10.82;8.35;;;;;;;12.56;100.00;94101.94;5056674;28;20070;-53
2021/08/05 02:21:45;;;;;;;13.18;9.15;;;;;;;12.57;100.00;94100.84;5056700;28;20032;-54
2021/08/05 02:24:15;;;;;;;11.25;8.98;;;;;;;12.57;100.00;94101.63;5056574;28;20032;-56
2021/08/05 02:26:43;;;;;;;13.75;9.02;;;;;;;12.56;100.00;94092.00;5074390;28;20017;-57
2021/08/05 02:29:18;;;;;;;11.32;8.30;;;;;;;12.53;100.00;94086.44;5056495;28;20040;-60
2021/08/05 02:31:44;;;;;;;11.32;8.88;;;;;;;12.52;100.00;94080.25;5056463;28;20056;-58
2021/08/05 02:34:19;;;;;;;14.38;9.13;;;;;;;12.51;100.00;94083.25;5056586;28;20506;-59
2021/08/05 02:36:44;;;;;;;11.65;9.32;;;;;;;12.49;100.00;94075.50;5060863;28;20480;-59
2021/08/05 02:39:09;;;;;;;11.60;8.68;;;;;;;12.50;100.00;94077.09;5039838;28;20029;-60
2021/08/05 02:41:46;;;;;;;12.38;8.88;;;;;;;12.49;100.00;94072.81;5074070;28;20056;-60
2021/08/05 02:44:13;;;;;;;12.70;8.80;;;;;;;12.50;100.00;94077.09;5074019;28;20032;-58
2021/08/05 02:46:47;;;;;;;11.52;7.90;;;;;;;12.50;100.00;94077.09;5073997;28;20028;-59
2021/08/05 02:49:15;;;;;;;10.80;8.35;;;;;;;12.52;100.00;94072.22;5073973;28;20070;-61
2021/08/05 02:51:43;;;;;;;12.32;8.85;;;;;;;12.52;100.00;94074.91;5074145;28;20453;-59
2021/08/05 02:54:08;;;;;;;11.05;8.48;;;;;;;12.52;100.00;94071.41;5055801;28;20028;-56
2021/08/05 02:56:39;;;;;;;11.75;8.90;;;;;;;12.51;100.00;94077.88;5039461;28;20548;-60
2021/08/05 02:59:11;;;;;;;12.70;8.18;;;;;;;12.50;100.00;94070.94;5073863;28;20579;-60
2021/08/05 03:01:37;;;;;;;11.25;8.82;;;;;;;12.52;100.00;94066.03;5055798;28;20032;-59
2021/08/05 03:04:03;;;;;;;13.32;8.50;;;;;;;12.53;100.00;94068.44;5073740;28;20032;-57
2021/08/05 03:06:46;;;;;;;11.00;8.63;;;;;;;12.53;100.00;94062.25;5055499;28;20487;-58
2021/08/05 03:09:13;;;;;;;;;;;;;;;12.52;100.00;94058.00;5060469;28;20021;-57
2021/08/05 03:11:39;;;;;;;10.38;7.78;;;;;;;12.51;100.00;94056.41;5073536;28;19909;-56
2021/08/05 03:14:04;;;;;;;11.45;8.18;;;;;;;12.48;100.00;94066.66;5073188;28;20070;-57
2021/08/05 03:16:30;;;;;;;9.77;7.78;;;;;;;12.43;100.00;94058.69;5073170;28;20025;-54
2021/08/05 03:18:57;;;;;;;10.57;8.23;;;;;;;12.37;100.00;94059.09;5037878;28;20024;-54
2021/08/05 03:21:23;;;;;;;12.32;8.80;;;;;;;12.32;100.00;94067.25;5055479;28;20020;-56
2021/08/05 03:23:48;;;;;;;11.25;8.52;;;;;;;12.27;100.00;94068.16;5055453;28;20031;-53
2021/08/05 03:26:14;;;;;;;11.70;7.93;;;;;;;12.24;100.00;94068.75;5073265;28;20035;-54
2021/08/05 03:28:39;;;;;;;12.10;8.10;;;;;;;12.21;100.00;94064.00;5055360;28;20070;-54
2021/08/05 03:31:05;;;;;;;11.90;8.30;;;;;;;12.19;100.00;94064.28;5055458;28;20051;-53
2021/08/05 03:33:33;;;;;;;10.90;8.23;;;;;;;12.21;100.00;94066.66;5072946;28;20099;-59
2021/08/05 03:35:58;;;;;;;13.18;8.35;;;;;;;12.21;100.00;94069.34;5059709;28;20020;-59
2021/08/05 03:38:24;;;;;;;10.90;7.55;;;;;;;12.22;100.00;94068.25;5073314;28;20024;-59
2021/08/05 03:40:49;;;;;;;13.40;8.23;;;;;;;12.23;100.00;94069.84;5055358;28;20111;-59
2021/08/05 03:43:14;;;;;;;11.38;8.73;;;;;;;12.28;100.00;94061.69;5072947;28;20028;-54
2021/08/05 03:45:42;;;;;;;11.48;8.95;;;;;;;12.28;100.00;94056.34;5072966;28;20028;-59
2021/08/05 03:48:15;;;;;;;15.23;8.98;;;;;;;12.29;100.00;94060.59;5054680;28;20391;-57
2021/08/05 03:50:41;;;;;;;;;;;;;;;12.34;100.00;94048.94;5073272;28;20032;-55
2021/08/05 03:53:09;;;;;;;10.83;8.43;;;;;;;12.35;100.00;94042.47;5054905;28;19912;-55
2021/08/05 03:55:34;;;;;;;11.77;8.40;;;;;;;12.37;100.00;94034.91;5072622;28;20259;-55
2021/08/05 03:58:09;;;;;;;12.73;8.35;;;;;;;12.38;100.00;94031.16;5072689;28;20497;-55
2021/08/05 04:00:35;;;;;;;13.25;9.55;;;;;;;12.38;100.00;94023.09;5054540;28;20024;-54
2021/08/05 04:03:00;;;;;;;12.48;8.35;;;;;;;12.38;100.00;94020.41;5072674;28;20021;-54
2021/08/05 04:05:31;;;;;;;12.00;8.07;;;;;;;12.38;100.00;94021.22;5072541;28;20052;-56
2021/08/05 04:08:03;;;;;;;10.43;7.90;;;;;;;12.36;100.00;94023.38;5054987;28;20028;-54
2021/08/05 04:10:32;;;;;;;;;;;;;;;12.32;100.00;94022.41;5055116;28;20391;-53
2021/08/05 04:13:00;;;;;;;9.90;7.65;;;;;;;12.30;100.00;94024.59;5054604;28;19938;-59
2021/08/05 04:15:25;;;;;;;9.98;7.25;;;;;;;12.26;100.00;94020.91;5072433;28;20093;-57
2021/08/05 04:17:54;;;;;;;14.32;8.05;;;;;;;12.24;100.00;94020.41;5054935;28;20499;-57
2021/08/05 04:20:21;;;;;;;11.00;7.53;;;;;;;12.24;100.00;94020.41;5072115;28;20487;-58
2021/08/05 04:22:47;;;;;;;9.80;7.47;;;;;;;12.23;100.00;94018.84;5038229;28;20033;-60
2021/08/05 04:25:13;;;;;;;11.70;7.85;;;;;;;12.23;100.00;94018.84;5072360;28;20033;-57
2021/08/05 04:27:39;;;;;;;8.80;7.28;;;;;;;12.21;100.00;94015.66;5072097;28;20028;-57
2021/08/05 04:30:06;;;;;;;10.82;7.82;;;;;;;12.21;100.00;94023.72;5054062;28;20031;-58
2021/08/05 04:32:51;;;;;;;8.80;6.60;;;;;;;12.21;100.00;94018.34;5072313;28;20024;-60
2021/08/05 04:35:17;;;;;;;9.70;7.85;;;;;;;12.22;100.00;94021.81;5064521;28;20017;-58
2021/08/05 04:37:54;;;;;;;11.43;7.50;;;;;;;12.24;100.00;94030.38;5066295;28;20153;-60
2021/08/05 04:40:20;;;;;;;13.65;8.18;;;;;;;12.25;100.00;94023.91;5072101;28;20495;-58
2021/08/05 04:42:46;;;;;;;12.20;7.90;;;;;;;12.28;100.00;94024.13;5072102;28;20039;-57
2021/08/05 04:45:15;;;;;;;11.32;8.00;;;;;;;12.30;100.00;94027.28;5054124;28;20492;-57
2021/08/05 04:48:02;;;;;;;13.25;8.10;;;;;;;12.30;100.00;94015.75;5072191;28;20042;-56
2021/08/05 04:50:32;;;;;;;12.02;7.95;;;;;;;12.29;100.00;94022.22;5072107;28;20036;-60
2021/08/05 04:52:59;;;;;;;12.40;7.95;;;;;;;12.27;100.00;94022.53;5072321;28;20479;-58
2021/08/05 04:55:28;;;;;;;12.65;9.30;;;;;;;12.29;100.00;94025.69;5072072;28;20017;-60
2021/08/05 04:58:01;;;;;;;11.88;8.27;;;;;;;12.32;100.00;94018.94;5054071;28;20021;-58
2021/08/05 05:00:42;;;;;;;14.95;8.70;;;;;;;12.34;100.00;94006.78;5054069;28;20558;-51
2021/08/05 05:03:11;;;;;;;12.88;7.50;;;;;;;12.40;100.00;94008.28;5054314;28;20029;-55
2021/08/05 05:05:40;;;;;;;11.55;8.20;;;;;;;12.45;100.00;94015.41;5071998;28;20036;-51
2021/08/05 05:08:11;;;;;;;10.57;7.53;;;;;;;12.48;100.00;94007.56;5054208;28;20028;-53
2021/08/05 05:10:44;;;;;;;11.20;8.80;;;;;;;12.54;100.00;94002.88;5071885;28;20051;-50
2021/08/05 05:13:09;;;;;;;10.23;7.45;;;;;;;12.61;100.00;94005.13;5054000;28;20028;-58
2021/08/05 05:15:35;;;;;;;13.13;8.02;;;;;;;12.68;100.00;93997.44;5071660;28;20078;-58
2021/08/05 05:18:00;;;;;;;9.98;7.20;;;;;;;12.71;100.00;93994.97;5053741;28;20059;-55
2021/08/05 05:20:33;;;;;;;11.38;7.97;;;;;;;12.74;100.00;93988.97;5071781;28;20040;-57
2021/08/05 05:23:01;;;;;;;10.43;7.80;;;;;;;12.80;100.00;93986.16;5071987;28;20472;-54
2021/08/05 05:25:29;;;;;;;11.50;7.85;;;;;;;12.83;100.00;93983.66;5071779;28;20449;-55
2021/08/05 05:28:01;;;;;;;11.95;7.57;;;;;;;12.88;100.00;93972.78;5071698;28;20108;-56
2021/08/05 05:30:29;;;;;;;10.50;7.90;;;;;;;12.91;100.00;93980.22;5053755;28;20070;-52
2021/08/05 05:32:58;;;;;;;11.73;8.02;;;;;;;12.96;100.00;93976.63;5071635;28;20055;-57
2021/08/05 05:35:26;;;;;;;10.20;8.10;;;;;;;12.99;100.00;93974.13;5063151;28;20031;-54
2021/08/05 05:38:18;;;;;;;10.05;8.48;;;;;;;13.04;100.00;93978.59;5067020;28;20016;-53
2021/08/05 05:40:43;;;;;;;11.85;7.32;;;;;;;13.07;100.00;93972.59;5053564;28;20365;-57
2021/08/05 05:43:13;;;;;;;11.38;7.88;;;;;;;13.11;100.00;93975.44;5057170;28;20108;-56
2021/08/05 05:45:39;;;;;;;8.13;6.90;;;;;;;13.12;100.00;93975.13;5075244;28;20472;-58
2021/08/05 05:48:06;;;;;;;10.27;7.00;;;;;;;13.10;100.00;93974.66;5057133;28;20020;-55
2021/08/05 05:50:35;;;;;;;9.40;6.78;;;;;;;13.10;100.00;93971.97;5075215;28;20032;-57
2021/08/05 05:53:01;;;;;;;7.53;6.40;;;;;;;13.11;100.00;93967.38;5057153;28;20020;-56
2021/08/05 05:55:29;;;;;;;7.97;6.63;;;;;;;13.15;100.00;93965.69;5070722;28;20526;-53
2021/08/05 05:57:54;;;;;;;9.85;7.20;;;;;;;13.17;100.00;93963.47;5057642;28;20385;-53
2021/08/05 06:00:20;;;;;;;9.80;6.97;;;;;;;13.20;100.00;93966.38;5051223;28;20116;-56
2021/08/05 06:02:45;;;;;;;11.27;7.55;;;;;;;13.23;100.00;93954.97;5075013;28;20055;-54
2021/08/05 06:05:13;;;;;;;10.02;6.85;;;;;;;13.23;100.00;93956.88;5074957;28;20029;-58
2021/08/05 06:07:43;;;;;;;11.50;6.80;;;;;;;13.25;100.00;93963.56;5074819;28;20372;-58
2021/08/05 06:10:11;;;;;;;9.38;6.60;;;;;;;13.30;100.00;93962.63;5074745;28;20028;-58
2021/08/05 06:12:37;;;;;;;8.10;6.55;;;;;;;13.30;100.00;93958.03;5074780;28;20036;-57
2021/08/05 06:15:02;;;;;;;9.52;6.63;;;;;;;13.33;100.00;93953.94;5074726;28;20487;-56
2021/08/05 06:17:36;;;;;;;10.55;7.18;;;;;;;13.35;100.00;93951.75;5074365;28;20045;-58
2021/08/05 06:20:05;;;;;;;10.68;6.45;;;;;;;13.41;100.00;93957.78;5074711;28;20064;-57
2021/08/05 06:22:30;;;;;;;9.85;6.53;;;;;;;13.47;100.00;93956.53;5074606;28;20016;-60
2021/08/05 06:24:55;;;;;;;9.00;6.90;;;;;;;13.47;100.00;93951.97;5056604;28;20035;-56
2021/08/05 06:27:22;;;;;;;8.15;6.38;;;;;;;13.54;100.00;93949.59;5074414;28;20027;-56
2021/08/05 06:29:58;;;;;;;8.77;6.50;;;;;;;13.59;100.00;93936.03;5074363;28;20077;-60
2021/08/05 06:32:24;;;;;;;9.80;6.50;;;;;;;13.70;100.00;93939.22;5074555;28;20024;-59
2021/08/05 06:34:49;;;;;;;7.88;6.20;;;;;;;13.77;100.00;93939.53;5070197;28;20048;-61
2021/08/05 06:37:17;;;;;;;8.88;6.43;;;;;;;13.84;100.00;93937.19;5065014;28;20527;-58
2021/08/05 06:39:42;;;;;;;8.45;6.05;;;;;;;13.97;100.00;93937.38;5074219;28;20027;-55
2021/08/05 06:42:13;;;;;;;8.73;6.53;;;;;;;14.06;100.00;93930.91;5074267;28;20476;-58
2021/08/05 06:44:43;;;;;;;7.82;6.05;;;;;;;14.19;100.00;93924.59;5074141;28;20112;-54
2021/08/05 06:47:09;;;;;;;12.30;6.40;;;;;;;14.28;100.00;93924.59;5074132;28;20025;-58
2021/08/05 06:49:37;;;;;;;8.23;6.13;;;;;;;14.20;100.00;93936.16;5055924;28;20017;-54
2021/08/05 06:52:06;;;;;;;6.72;5.38;;;;;;;14.23;100.00;93938.22;5074036;28;20021;-55
2021/08/05 06:54:37;;;;;;;6.93;5.68;;;;;;;14.19;100.00;93939.94;5073941;28;20032;-60
2021/08/05 06:57:03;;;;;;;10.13;5.95;;;;;;;14.29;100.00;93936.94;5060449;28;20380;-61
2021/08/05 06:59:28;;;;;;;6.85;5.70;;;;;;;14.37;100.00;93943.47;5055972;28;20012;-59
2021/08/05 07:01:54;;;;;;;8.43;5.95;;;;;;;14.40;100.00;93937.44;5055785;28;20558;-61
2021/08/05 07:04:19;;;;;;;7.78;6.35;;;;;;;14.46;100.00;93942.41;5056144;28;20096;-61
2021/08/05 07:06:47;;;;;;;8.90;6.20;;;;;;;14.54;100.00;93946.19;5055973;28;20016;-61
2021/08/05 07:09:12;;;;;;;8.90;6.18;;;;;;;14.63;100.00;93943.50;5055668;28;20020;-60
2021/08/05 07:11:44;;;;;;;7.53;6.20;;;;;;;14.70;100.00;93944.59;5055747;28;20025;-59
2021/08/05 07:14:10;;;;;;;10.27;5.93;;;;;;;14.81;100.00;93941.59;5073664;28;20379;-60
2021/08/05 07:16:35;;;;;;;7.82;6.40;;;;;;;14.92;100.00;93926.66;5055843;28;20059;-57
2021/08/05 07:19:07;;;;;;;5.32;4.82;;;;;;;15.08;100.00;93930.44;5054538;28;20043;-58
2021/08/05 07:21:35;;;;;;;5.80;5.20;;;;;;;15.15;100.00;93922.66;5054396;28;20083;-58
2021/08/05 07:24:06;;;;;;;6.03;4.70;;;;;;;15.34;100.00;93924.97;5052688;28;20025;-58
2021/08/05 07:26:32;;;;;;;5.72;4.50;;;;;;;15.53;100.00;93914.59;5034147;28;20034;-56
2021/08/05 07:29:00;;;;;;;4.43;4.03;;;;;;;15.79;100.00;93906.41;5055219;28;20033;-59
2021/08/05 07:31:25;;;;;;;4.90;3.75;;;;;;;15.99;100.00;93906.78;5055523;28;20033;-59
2021/08/05 07:33:54;;;;;;;5.80;4.32;;;;;;;16.09;100.00;93901.78;5034418;28;20032;-56
2021/08/05 07:36:21;;;;;;;8.90;4.35;;;;;;;16.16;100.00;93899.31;5053703;28;20089;-59
2021/08/05 07:38:46;;;;;;;4.13;3.75;;;;;;;16.19;100.00;93898.69;5035349;28;20392;-59
2021/08/05 07:41:12;;;;;;;5.25;3.83;;;;;;;16.22;100.00;93902.63;5052141;28;20036;-54
2021/08/05 07:43:43;;;;;;;4.40;3.65;;;;;;;16.30;100.00;93893.69;5053828;28;20025;-57
2021/08/05 07:46:11;;;;;;;4.28;2.92;;;;;;;16.32;100.00;93901.47;5053097;28;20446;-55
2021/08/05 07:48:39;;;;;;;3.97;2.80;;;;;;;16.39;100.00;93888.19;5034687;28;20094;-55
2021/08/05 07:51:10;;;;;;;2.42;2.22;;;;;;;16.32;100.00;93883.34;5055165;28;20364;-59
2021/08/05 07:53:38;;;;;;;3.83;2.80;;;;;;;16.30;100.00;93882.09;5051517;28;20025;-60
2021/08/05 07:56:06;;;;;;;2.90;2.63;;;;;;;16.39;100.00;93874.69;5053238;28;20024;-54
2021/08/05 07:58:32;;;;;;;2.38;2.15;;;;;;;16.46;100.00;93864.94;5052050;28;20044;-56
2021/08/05 08:00:59;;;;;;;1.70;1.52;;;;;;;16.38;100.00;93860.38;5036110;28;20028;-59
2021/08/05 08:03:27;;;;;;;2.05;1.83;;;;;;;16.35;100.00;93850.25;5034695;28;20025;-55
2021/08/05 08:05:55;;;;;;;3.08;2.53;;;;;;;16.44;100.00;93839.38;5050964;28;20021;-57
2021/08/05 08:08:20;;;;;;;2.30;2.10;;;;;;;16.57;100.00;93813.94;5037276;28;20029;-57
2021/08/05 08:10:48;;;;;;;2.30;1.77;;;;;;;16.92;100.00;93795.47;5055215;28;20552;-58
2021/08/05 08:13:16;;;;;;;3.92;2.17;;;;;;;17.21;100.00;93775.56;5052206;28;20021;-59
2021/08/05 08:15:52;;;;;;;3.42;2.05;;;;;;;17.46;100.00;93762.81;5056026;28;20475;-59
2021/08/05 08:18:18;;;;;;;4.55;2.10;;;;;;;17.77;100.00;93732.44;5044806;28;20041;-60
2021/08/05 08:20:45;;;;;;;4.88;2.17;;;;;;;18.19;100.00;93711.19;5034750;28;20046;-58
2021/08/05 08:23:10;;;;;;;2.78;2.22;;;;;;;18.10;100.00;93707.81;5052884;28;20025;-59
2021/08/05 08:25:36;;;;;;;2.55;1.83;;;;;;;18.11;100.00;93709.41;5072583;28;20033;-58
2021/08/05 08:28:04;;;;;;;2.33;2.13;;;;;;;18.17;100.00;93701.81;5070574;28;20078;-58
2021/08/05 08:30:29;;;;;;;4.80;1.90;;;;;;;18.11;100.00;93708.63;5032802;28;20029;-58
2021/08/05 08:32:55;;;;;;;2.53;1.90;;;;;;;17.95;100.00;93712.06;5018356;28;20082;-59
2021/08/05 08:35:23;;;;;;;2.53;1.90;;;;;;;17.82;100.00;93715.97;5032972;28;20063;-58
2021/08/05 08:37:48;;;;;;;2.65;2.10;;;;;;;17.51;100.00;93734.72;5049271;28;20458;-58
2021/08/05 08:40:15;;;;;;;3.38;2.05;;;;;;;17.71;100.00;93750.06;5072450;28;20052;-59
2021/08/05 08:42:43;;;;;;;2.42;2.00;;;;;;;17.96;100.00;93748.88;5072037;28;20108;-59
2021/08/05 08:45:11;;;;;;;2.80;1.60;;;;;;;18.07;100.00;93764.63;5072262;28;20506;-61
2021/08/05 08:47:39;;;;;;;2.05;1.85;;;;;;;18.12;100.00;93770.59;5071963;28;20084;-59
2021/08/05 08:50:05;;;;;;;4.93;1.90;;;;;;;18.25;100.00;93787.63;5072131;28;20024;-62
2021/08/05 08:52:32;;;;;;;2.30;1.60;;;;;;;18.35;100.00;93795.25;5054178;28;20024;-62
2021/08/05 08:55:02;;;;;;;4.25;1.98;;;;;;;18.58;100.00;93805.56;5072210;28;20475;-59
2021/08/05 08:57:32;;;;;;;1.65;1.55;;;;;;;18.98;100.00;93795.41;5071973;28;20032;-55
2021/08/05 09:00:04;;;;;;;2.08;1.38;;;;;;;19.20;100.00;93813.03;5072647;28;20461;-60
2021/08/05 09:02:30;;;;;;;1.77;1.42;;;;;;;19.37;100.00;93830.91;5072090;28;20025;-61
2021/08/05 09:04:56;;;;;;;1.25;1.15;;;;;;;19.04;100.00;93864.59;5071861;28;20399;-60
2021/08/05 09:07:25;;;;;;;2.25;1.38;;;;;;;19.09;100.00;93875.19;5071877;28;20387;-58
2021/08/05 09:09:51;;;;;;;2.17;1.23;;;;;;;19.45;100.00;93883.47;5071832;28;20059;-61
2021/08/05 09:12:19;;;;;;;1.98;1.30;;;;;;;19.62;100.00;93902.94;5071947;28;20518;-61
2021/08/05 09:14:53;;;;;;;1.88;1.38;;;;;;;19.90;100.00;93919.16;5037421;28;20025;-61
2021/08/05 09:17:21;;;;;;;1.33;1.20;;;;;;;20.06;100.00;93948.25;5073564;28;20052;-60
2021/08/05 09:19:47;;;;;;;1.65;1.10;;;;;;;20.07;100.00;93972.34;5076008;28;20477;-59
2021/08/05 09:22:45;;;;;;;1.13;1.02;;;;;;;20.09;100.00;93988.34;5057849;28;20095;-60
2021/08/05 09:25:20;;;;;;;1.30;1.20;;;;;;;20.16;100.00;93988.50;5075733;28;20025;-61
2021/08/05 09:27:59;;;;;;;2.53;1.30;;;;;;;20.09;100.00;94021.75;5075573;28;20074;-60
2021/08/05 09:30:35;;;;;;;2.50;1.38;;;;;;;20.20;100.00;94035.59;5057406;28;20108;-59
2021/08/05 09:33:09;;;;;;;1.40;1.30;;;;;;;20.01;100.00;94057.25;5056249;28;20025;-60
2021/08/05 09:35:45;;;;;;;3.55;1.33;;;;;;;19.65;100.00;94072.63;5055801;28;20057;-61
2021/08/05 09:38:31;;;;;;;2.08;1.20;;;;;;;19.26;100.00;94082.31;5050757;28;20039;-59
2021/08/05 09:41:11;;;;;;;1.38;1.27;;;;;;;19.00;100.00;94088.16;5054575;28;20023;-60
2021/08/05 09:43:40;;;;;;;1.55;1.15;;;;;;;18.75;100.00;94090.88;5054625;28;20391;-61
2021/08/05 09:46:06;;;;;;;3.92;1.40;;;;;;;18.70;100.00;94096.56;5075364;28;20032;-59
2021/08/05 09:48:45;;;;;;;1.10;1.00;;;;;;;19.18;100.00;94091.38;5057008;28;20052;-61
2021/08/05 09:51:17;;;;;;;1.15;1.05;;;;;;;19.74;100.00;94089.53;5062175;28;20499;-59
2021/08/05 09:54:01;;;;;;;;;;;;;;;20.34;100.00;94092.28;5075675;28;20024;-60
2021/08/05 09:56:28;;;;;;;2.45;1.27;;;;;;;21.26;100.00;94090.97;5075091;28;19920;-61
2021/08/05 09:59:23;;;;;;;1.48;1.38;;;;;;;21.54;100.00;94126.22;5075370;28;20479;-59
2021/08/05 10:01:58;;;;;;;2.45;1.50;;;;;;;21.51;100.00;94173.25;5036115;28;20044;-59
2021/08/05 10:04:29;;;;;;;1.55;1.45;;;;;;;21.57;100.00;94164.44;5075166;28;20020;-58
2021/08/05 10:07:15;;;;;;;1.60;1.50;;;;;;;22.06;100.00;94184.91;5061409;28;20033;-58
2021/08/05 10:09:41;;;;;;;1.30;1.20;;;;;;;22.54;100.00;94188.97;5063884;28;20478;-60
2021/08/05 10:12:10;;;;;;;1.40;1.30;;;;;;;22.99;100.00;94270.16;5072481;28;20020;-60
2021/08/05 10:14:46;;;;;;;1.55;1.38;;;;;;;23.10;100.00;94245.75;5074821;28;20032;-59
2021/08/05 10:17:15;;;;;;;1.98;1.25;;;;;;;23.05;100.00;94249.59;5069287;28;20389;-63
2021/08/05 10:19:43;;;;;;;1.83;1.27;;;;;;;22.51;100.00;94296.94;5043926;28;20480;-62
2021/08/05 10:22:19;;;;;;;2.42;1.10;;;;;;;22.47;100.00;94276.19;5054654;28;20424;-62
2021/08/05 10:24:48;;;;;;;1.33;1.23;;;;;;;22.12;100.00;94240.78;5054628;28;20388;-62
2021/08/05 10:27:16;;;;;;;2.08;1.23;;;;;;;21.97;100.00;94231.47;5054082;28;20029;-62
2021/08/05 10:29:45;;;;;;;3.13;1.38;;;;;;;21.99;100.00;94183.63;5054486;28;20029;-63
2021/08/05 10:32:17;;;;;;;1.73;1.23;;;;;;;21.71;100.00;94196.66;5054481;28;20541;-62
2021/08/05 10:34:46;;;;;;;1.45;1.30;;;;;;;22.33;100.00;94202.22;5053233;28;20469;-62
2021/08/05 10:37:26;;;;;;;1.38;1.27;;;;;;;22.71;100.00;94172.13;5046641;28;20484;-63
2021/08/05 10:39:52;;;;;;;1.30;1.20;;;;;;;22.80;100.00;94202.72;5069239;28;20017;-63
2021/08/05 10:42:19;;;;;;;2.88;1.35;;;;;;;23.46;100.00;94202.63;5066118;28;20025;-62
2021/08/05 10:44:47;;;;;;;4.03;1.23;;;;;;;23.63;100.00;94235.72;5074097;28;20047;-62
2021/08/05 10:47:23;;;;;;;2.65;1.50;;;;;;;24.32;100.00;94183.53;5074194;28;20497;-62
2021/08/05 10:49:52;;;;;;;1.45;1.10;;;;;;;24.24;100.00;94302.22;5074107;28;20467;-62
2021/08/05 10:52:37;;;;;;;3.80;1.08;;;;;;;23.91;100.00;94331.06;5056126;28;20082;-62
2021/08/05 10:55:17;;;;;;;2.05;1.38;;;;;;;24.17;100.00;94322.06;5074133;28;20483;-63
2021/08/05 10:58:06;;;;;;;1.27;1.17;;;;;;;23.88;100.00;94304.47;5073846;28;20449;-62
2021/08/05 11:01:04;;;;;;;1.70;1.30;;;;;;;24.61;100.00;94285.91;5073924;28;20086;-63
2021/08/05 11:03:33;;;;;;;1.50;1.10;;;;;;;24.49;100.00;94239.63;5018838;28;20040;-63
2021/08/05 11:06:09;;;;;;;1.58;1.20;;;;;;;24.69;100.00;94388.09;5073881;28;20028;-63
2021/08/05 11:08:35;;;;;;;1.20;1.00;;;;;;;24.49;100.00;94360.84;5073678;28;20040;-63
2021/08/05 11:11:25;;;;;;;1.38;1.25;;;;;;;25.01;100.00;94361.09;5073693;28;20430;-63
2021/08/05 11:13:57;;;;;;;1.73;1.10;;;;;;;24.44;100.00;94406.94;5073618;28;20013;-63
2021/08/05 11:17:18;;;;;;;1.73;1.15;;;;;;;24.00;100.00;94426.56;5055480;28;20061;-62
2021/08/05 11:19:46;;;;;;;1.23;0.90;;;;;;;23.51;100.00;94303.44;5074041;28;20056;-62
2021/08/05 11:22:42;;;;;;;1.13;1.02;;;;;;;23.11;100.00;94318.38;5073388;28;20024;-62
2021/08/05 11:25:11;;;;;;;1.25;1.05;;;;;;;23.46;100.00;94232.69;5055534;28;20021;-63
2021/08/05 11:28:18;;;;;;;1.30;1.02;;;;;;;23.88;100.00;94270.84;5073266;28;20036;-63
2021/08/05 11:31:04;;;;;;;2.33;1.50;;;;;;;23.40;100.00;94289.59;5073204;28;20028;-63
2021/08/05 11:33:51;;;;;;;1.20;1.10;;;;;;;23.16;100.00;94309.88;5055316;28;20063;-62
2021/08/05 11:36:24;;;;;;;1.30;1.20;;;;;;;23.34;100.00;94285.63;5059683;28;20504;-63
2021/08/05 11:39:20;;;;;;;1.63;1.52;;;;;;;23.03;100.00;94246.44;5054209;28;20506;-61